createdAt,value
2024-01-11T00:00:31.110Z,88775.00
2024-01-11T00:01:31.069Z,88776.00
2024-01-11T00:02:31.248Z,88780.00
2024-01-11T00:03:31.054Z,88778.00
2024-01-11T00:04:31.102Z,88773.00
2024-01-11T00:05:31.202Z,88777.00
2024-01-11T00:06:31.233Z,88772.00
2024-01-11T00:07:31.153Z,88771.00
2024-01-11T00:08:31.231Z,88773.00
2024-01-11T00:09:31.266Z,88772.00
2024-01-11T00:10:31.274Z,88771.00
2024-01-11T00:11:31.301Z,88770.00
2024-01-11T00:12:31.274Z,88773.00
2024-01-11T00:13:31.282Z,88769.00
2024-01-11T00:14:31.370Z,88770.00
2024-01-11T00:15:31.350Z,88769.00
2024-01-11T00:16:31.306Z,88762.00
2024-01-11T00:17:31.379Z,88768.00
2024-01-11T00:18:31.407Z,88767.00
2024-01-11T00:19:31.374Z,88767.00
2024-01-11T00:20:31.346Z,88768.00
2024-01-11T00:21:31.391Z,88767.00
2024-01-11T00:22:31.292Z,88768.00
2024-01-11T00:23:31.336Z,88769.00
2024-01-11T00:24:31.306Z,88765.00
2024-01-11T00:25:32.317Z,88769.00
2024-01-11T00:26:31.363Z,88772.00
2024-01-11T00:27:31.307Z,88773.00
2024-01-11T00:28:31.308Z,88772.00
2024-01-11T00:29:31.391Z,88771.00
2024-01-11T00:30:31.342Z,88772.00
2024-01-11T00:31:31.309Z,88772.00
2024-01-11T00:32:31.400Z,88772.00
2024-01-11T00:33:31.366Z,88769.00
2024-01-11T00:34:31.398Z,88768.00
2024-01-11T00:35:31.382Z,88770.00
2024-01-11T00:36:31.345Z,88772.00
2024-01-11T00:37:31.334Z,88773.00
2024-01-11T00:38:31.417Z,88772.00
2024-01-11T00:39:31.322Z,88769.00
2024-01-11T00:40:31.329Z,88769.00
2024-01-11T00:41:31.409Z,88769.00
2024-01-11T00:42:31.338Z,88773.00
2024-01-11T00:43:31.332Z,88773.00
2024-01-11T00:44:31.385Z,88772.00
2024-01-11T00:45:31.342Z,88771.00
2024-01-11T00:46:31.366Z,88773.00
2024-01-11T00:47:31.416Z,88776.00
2024-01-11T00:48:31.437Z,88774.00
2024-01-11T00:49:31.415Z,88772.00
2024-01-11T00:50:31.372Z,88773.00
2024-01-11T00:51:31.358Z,88770.00
2024-01-11T00:52:31.393Z,88771.00
2024-01-11T00:53:31.480Z,88772.00
2024-01-11T00:54:31.371Z,88770.00
2024-01-11T00:55:31.382Z,88771.00
2024-01-11T00:56:31.416Z,88773.00
2024-01-11T00:57:31.415Z,88770.00
2024-01-11T00:58:31.479Z,88771.00
2024-01-11T00:59:31.672Z,88772.00
2024-01-11T01:00:31.554Z,88774.00
2024-01-11T01:01:31.568Z,88772.00
2024-01-11T01:02:31.681Z,88772.00
2024-01-11T01:03:31.784Z,88773.00
2024-01-11T01:04:31.668Z,88771.00
2024-01-11T01:05:31.843Z,88769.00
2024-01-11T01:06:31.853Z,88771.00
2024-01-11T01:07:31.785Z,88777.00
2024-01-11T01:08:31.865Z,88775.00
2024-01-11T01:09:31.885Z,88776.00
2024-01-11T01:10:31.856Z,88776.00
2024-01-11T01:11:31.926Z,88778.00
2024-01-11T01:12:31.875Z,88774.00
2024-01-11T01:13:31.889Z,88775.00
2024-01-11T01:14:32.007Z,88778.00
2024-01-11T01:15:31.932Z,88780.00
2024-01-11T01:16:31.995Z,88780.00
2024-01-11T01:17:32.064Z,88780.00
2024-01-11T01:18:32.088Z,88778.00
2024-01-11T01:19:32.068Z,88779.00
2024-01-11T01:20:32.012Z,88783.00
2024-01-11T01:21:32.047Z,88786.00
2024-01-11T01:22:32.019Z,88783.00
2024-01-11T01:23:32.124Z,88783.00
2024-01-11T01:24:32.050Z,88786.00
2024-01-11T01:25:32.074Z,88785.00
2024-01-11T01:26:32.054Z,88784.00
2024-01-11T01:27:32.014Z,88786.00
2024-01-11T01:28:32.018Z,88790.00
2024-01-11T01:29:32.112Z,88790.00
2024-01-11T01:30:32.111Z,88790.00
2024-01-11T01:31:32.046Z,88791.00
2024-01-11T01:32:32.327Z,88789.00
2024-01-11T01:33:32.203Z,88789.00
2024-01-11T01:34:32.171Z,88791.00
2024-01-11T01:35:32.117Z,88790.00
2024-01-11T01:36:32.033Z,88790.00
2024-01-11T01:37:32.048Z,88790.00
2024-01-11T01:38:32.282Z,88792.00
2024-01-11T01:39:32.098Z,88791.00
2024-01-11T01:40:32.075Z,88791.00
2024-01-11T01:41:32.138Z,88790.00
2024-01-11T01:42:32.046Z,88791.00
2024-01-11T01:43:32.061Z,88789.00
2024-01-11T01:44:32.139Z,88790.00
2024-01-11T01:45:32.059Z,88791.00
2024-01-11T01:46:32.114Z,88791.00
2024-01-11T01:47:32.322Z,88794.00
2024-01-11T01:48:32.194Z,88795.00
2024-01-11T01:49:32.122Z,88794.00
2024-01-11T01:50:32.191Z,88793.00
2024-01-11T01:51:32.066Z,88795.00
2024-01-11T01:52:32.074Z,88792.00
2024-01-11T01:53:32.113Z,88795.00
2024-01-11T01:54:32.090Z,88793.00
2024-01-11T01:55:32.190Z,88793.00
2024-01-11T01:56:32.172Z,88794.00
2024-01-11T01:57:32.124Z,88792.00
2024-01-11T01:58:32.137Z,88791.00
2024-01-11T01:59:32.157Z,88791.00
2024-01-11T02:00:32.081Z,88791.00
2024-01-11T02:01:32.148Z,88788.00
2024-01-11T02:02:32.099Z,88788.00
2024-01-11T02:03:32.161Z,88790.00
2024-01-11T02:04:32.097Z,88792.00
2024-01-11T02:05:32.275Z,88793.00
2024-01-11T02:06:32.268Z,88791.00
2024-01-11T02:07:32.103Z,88793.00
2024-01-11T02:08:32.177Z,88792.00
2024-01-11T02:09:32.141Z,88795.00
2024-01-11T02:10:32.116Z,88795.00
2024-01-11T02:11:32.125Z,88794.00
2024-01-11T02:12:32.108Z,88795.00
2024-01-11T02:13:32.137Z,88799.00
2024-01-11T02:14:32.141Z,88799.00
2024-01-11T02:15:32.153Z,88800.00
2024-01-11T02:16:32.137Z,88798.00
2024-01-11T02:17:32.224Z,88800.00
2024-01-11T02:18:32.207Z,88801.00
2024-01-11T02:19:32.198Z,88799.00
2024-01-11T02:20:32.216Z,88796.00
2024-01-11T02:21:32.169Z,88800.00
2024-01-11T02:22:32.193Z,88796.00
2024-01-11T02:23:32.282Z,88797.00
2024-01-11T02:24:32.169Z,88797.00
2024-01-11T02:25:32.178Z,88797.00
2024-01-11T02:26:32.227Z,88797.00
2024-01-11T02:27:32.157Z,88799.00
2024-01-11T02:28:32.161Z,88799.00
2024-01-11T02:29:32.278Z,88799.00
2024-01-11T02:30:32.224Z,88800.00
2024-01-11T02:31:32.190Z,88800.00
2024-01-11T02:32:32.225Z,88801.00
2024-01-11T02:33:32.268Z,88799.00
2024-01-11T02:34:32.223Z,88799.00
2024-01-11T02:35:32.258Z,88799.00
2024-01-11T02:36:32.295Z,88799.00
2024-01-11T02:37:32.286Z,88798.00
2024-01-11T02:38:32.340Z,88797.00
2024-01-11T02:39:32.299Z,88799.00
2024-01-11T02:40:32.307Z,88800.00
2024-01-11T02:41:32.341Z,88800.00
2024-01-11T02:42:32.292Z,88799.00
2024-01-11T02:43:32.299Z,88800.00
2024-01-11T02:44:32.372Z,88801.00
2024-01-11T02:45:32.311Z,88800.00
2024-01-11T02:46:32.330Z,88800.00
2024-01-11T02:47:32.553Z,88799.00
2024-01-11T02:48:32.449Z,88797.00
2024-01-11T02:49:32.435Z,88796.00
2024-01-11T02:50:32.368Z,88795.00
2024-01-11T02:51:32.348Z,88796.00
2024-01-11T02:52:32.338Z,88796.00
2024-01-11T02:53:32.369Z,88797.00
2024-01-11T02:54:32.346Z,88798.00
2024-01-11T02:55:32.347Z,88796.00
2024-01-11T02:56:32.379Z,88797.00
2024-01-11T02:57:32.365Z,88794.00
2024-01-11T02:58:32.468Z,88794.00
2024-01-11T02:59:32.565Z,88793.00
2024-01-11T03:00:32.584Z,88794.00
2024-01-11T03:01:32.505Z,88794.00
2024-01-11T03:02:32.557Z,88793.00
2024-01-11T03:03:32.588Z,88793.00
2024-01-11T03:04:32.542Z,88790.00
2024-01-11T03:05:32.679Z,88788.00
2024-01-11T03:06:32.564Z,88789.00
2024-01-11T03:07:32.536Z,88790.00
2024-01-11T03:08:32.597Z,88789.00
2024-01-11T03:09:32.542Z,88789.00
2024-01-11T03:10:32.541Z,88789.00
2024-01-11T03:11:32.567Z,88787.00
2024-01-11T03:12:32.557Z,88788.00
2024-01-11T03:13:32.563Z,88786.00
2024-01-11T03:14:32.622Z,88789.00
2024-01-11T03:15:32.562Z,88786.00
2024-01-11T03:16:32.560Z,88785.00
2024-01-11T03:17:32.673Z,88785.00
2024-01-11T03:18:32.722Z,88783.00
2024-01-11T03:19:32.659Z,88782.00
2024-01-11T03:20:32.627Z,88780.00
2024-01-11T03:21:32.584Z,88780.00
2024-01-11T03:22:32.573Z,88779.00
2024-01-11T03:23:32.666Z,88780.00
2024-01-11T03:24:32.581Z,88775.00
2024-01-11T03:25:32.586Z,88777.00
2024-01-11T03:26:32.618Z,88776.00
2024-01-11T03:27:32.580Z,88776.00
2024-01-11T03:28:32.575Z,88776.00
2024-01-11T03:29:32.659Z,88776.00
2024-01-11T03:30:32.618Z,88775.00
2024-01-11T03:31:32.582Z,88776.00
2024-01-11T03:32:32.670Z,88777.00
2024-01-11T03:33:32.801Z,88776.00
2024-01-11T03:34:32.788Z,88777.00
2024-01-11T03:35:32.741Z,88775.00
2024-01-11T03:36:32.755Z,88774.00
2024-01-11T03:37:32.785Z,88775.00
2024-01-11T03:38:32.956Z,88771.00
2024-01-11T03:39:32.824Z,88771.00
2024-01-11T03:40:32.812Z,88770.00
2024-01-11T03:41:32.864Z,88769.00
2024-01-11T03:42:32.822Z,88769.00
2024-01-11T03:43:32.837Z,88769.00
2024-01-11T03:44:32.890Z,88767.00
2024-01-11T03:45:32.859Z,88767.00
2024-01-11T03:46:32.836Z,88765.00
2024-01-11T03:47:32.876Z,88764.00
2024-01-11T03:48:32.917Z,88764.00
2024-01-11T03:49:33.009Z,88762.00
2024-01-11T03:50:32.953Z,88761.00
2024-01-11T03:51:32.841Z,88760.00
2024-01-11T03:52:32.854Z,88757.00
2024-01-11T03:53:32.858Z,88758.00
2024-01-11T03:54:32.940Z,88757.00
2024-01-11T03:55:32.919Z,88759.00
2024-01-11T03:56:32.885Z,88756.00
2024-01-11T03:57:32.885Z,88759.00
2024-01-11T03:58:32.857Z,88757.00
2024-01-11T03:59:32.922Z,88759.00
2024-01-11T04:00:32.885Z,88760.00
2024-01-11T04:01:32.889Z,88758.00
2024-01-11T04:02:32.924Z,88759.00
2024-01-11T04:03:32.956Z,88759.00
2024-01-11T04:04:32.885Z,88758.00
2024-01-11T04:05:32.963Z,88756.00
2024-01-11T04:06:33.064Z,88757.00
2024-01-11T04:07:32.899Z,88757.00
2024-01-11T04:08:32.944Z,88756.00
2024-01-11T04:09:32.894Z,88756.00
2024-01-11T04:10:32.891Z,88756.00
2024-01-11T04:11:32.998Z,88753.00
2024-01-11T04:12:32.913Z,88754.00
2024-01-11T04:13:32.957Z,88755.00
2024-01-11T04:14:32.945Z,88755.00
2024-01-11T04:15:32.909Z,88752.00
2024-01-11T04:16:32.948Z,88752.00
2024-01-11T04:17:33.084Z,88753.00
2024-01-11T04:18:32.990Z,88751.00
2024-01-11T04:19:33.001Z,88752.00
2024-01-11T04:20:33.019Z,88750.00
2024-01-11T04:21:32.993Z,88752.00
2024-01-11T04:22:32.925Z,88749.00
2024-01-11T04:23:33.014Z,88750.00
2024-01-11T04:24:32.940Z,88749.00
2024-01-11T04:25:32.934Z,88751.00
2024-01-11T04:26:32.998Z,88753.00
2024-01-11T04:27:32.960Z,88752.00
2024-01-11T04:28:32.950Z,88750.00
2024-01-11T04:29:33.036Z,88751.00
2024-01-11T04:30:33.124Z,88752.00
2024-01-11T04:31:33.113Z,88755.00
2024-01-11T04:32:33.161Z,88755.00
2024-01-11T04:33:33.060Z,88754.00
2024-01-11T04:34:33.136Z,88755.00
2024-01-11T04:35:33.053Z,88754.00
2024-01-11T04:36:33.032Z,88753.00
2024-01-11T04:37:33.082Z,88754.00
2024-01-11T04:38:33.184Z,88753.00
2024-01-11T04:39:33.076Z,88752.00
2024-01-11T04:40:33.050Z,88753.00
2024-01-11T04:41:33.151Z,88754.00
2024-01-11T04:42:40.463Z,88752.00
2024-01-11T04:43:40.438Z,88752.00
2024-01-11T04:44:40.492Z,88752.00
2024-01-11T04:45:40.476Z,88751.00
2024-01-11T04:46:40.451Z,88749.00
2024-01-11T04:47:40.556Z,88748.00
2024-01-11T04:48:40.547Z,88747.00
2024-01-11T04:49:40.471Z,88745.00
2024-01-11T04:50:40.539Z,88744.00
2024-01-11T04:51:40.493Z,88745.00
2024-01-11T04:52:40.466Z,88745.00
2024-01-11T04:53:40.632Z,88747.00
2024-01-11T04:54:40.471Z,88744.00
2024-01-11T04:55:40.490Z,88745.00
2024-01-11T04:56:40.602Z,88745.00
2024-01-11T04:57:40.459Z,88746.00
2024-01-11T04:58:40.462Z,88746.00
2024-01-11T04:59:40.637Z,88745.00
2024-01-11T05:00:40.582Z,88745.00
2024-01-11T05:01:40.503Z,88746.00
2024-01-11T05:02:40.672Z,88746.00
2024-01-11T05:03:40.562Z,88746.00
2024-01-11T05:04:40.506Z,88748.00
2024-01-11T05:05:40.749Z,88748.00
2024-01-11T05:06:40.550Z,88748.00
2024-01-11T05:07:40.476Z,88749.00
2024-01-11T05:08:40.581Z,88751.00
2024-01-11T05:09:40.488Z,88748.00
2024-01-11T05:10:40.500Z,88746.00
2024-01-11T05:11:40.594Z,88747.00
2024-01-11T05:12:40.508Z,88748.00
2024-01-11T05:13:40.522Z,88747.00
2024-01-11T05:14:40.614Z,88744.00
2024-01-11T05:15:40.497Z,88745.00
2024-01-11T05:16:40.530Z,88744.00
2024-01-11T05:17:40.591Z,88744.00
2024-01-11T05:18:40.607Z,88743.00
2024-01-11T05:19:40.565Z,88744.00
2024-01-11T05:20:40.560Z,88746.00
2024-01-11T05:21:40.530Z,88745.00
2024-01-11T05:22:40.534Z,88746.00
2024-01-11T05:23:40.576Z,88746.00
2024-01-11T05:24:40.532Z,88745.00
2024-01-11T05:25:40.535Z,88747.00
2024-01-11T05:26:40.605Z,88747.00
2024-01-11T05:27:40.533Z,88747.00
2024-01-11T05:28:40.569Z,88747.00
2024-01-11T05:29:40.626Z,88748.00
2024-01-11T05:30:40.752Z,88749.00
2024-01-11T05:31:40.679Z,88747.00
2024-01-11T05:32:40.614Z,88747.00
2024-01-11T05:33:40.733Z,88748.00
2024-01-11T05:34:40.696Z,88747.00
2024-01-11T05:35:40.598Z,88745.00
2024-01-11T05:36:40.567Z,88747.00
2024-01-11T05:37:40.569Z,88747.00
2024-01-11T05:38:40.712Z,88747.00
2024-01-11T05:39:40.589Z,88745.00
2024-01-11T05:40:40.604Z,88746.00
2024-01-11T05:41:40.631Z,88745.00
2024-01-11T05:42:40.622Z,88744.00
2024-01-11T05:43:40.668Z,88744.00
2024-01-11T05:44:40.646Z,88743.00
2024-01-11T05:45:47.287Z,88742.00
2024-01-11T05:46:41.620Z,88743.00
2024-01-11T05:47:40.753Z,88744.00
2024-01-11T05:48:40.845Z,88742.00
2024-01-11T05:49:40.625Z,88744.00
2024-01-11T05:50:40.712Z,88742.00
2024-01-11T05:51:40.644Z,88740.00
2024-01-11T05:52:40.639Z,88740.00
2024-01-11T05:53:40.752Z,88739.00
2024-01-11T05:54:40.642Z,88738.00
2024-01-11T05:55:40.623Z,88739.00
2024-01-11T05:56:40.672Z,88737.00
2024-01-11T05:57:40.626Z,88739.00
2024-01-11T05:58:40.692Z,88739.00
2024-01-11T05:59:40.729Z,88739.00
2024-01-11T06:00:40.741Z,88742.00
2024-01-11T06:01:40.682Z,88745.00
2024-01-11T06:02:40.751Z,88744.00
2024-01-11T06:03:40.844Z,88746.00
2024-01-11T06:04:40.646Z,88745.00
2024-01-11T06:05:40.806Z,88745.00
2024-01-11T06:06:40.684Z,88744.00
2024-01-11T06:07:40.673Z,88744.00
2024-01-11T06:08:40.699Z,88741.00
2024-01-11T06:09:40.686Z,88745.00
2024-01-11T06:10:40.681Z,88746.00
2024-01-11T06:11:40.859Z,88744.00
2024-01-11T06:12:40.656Z,88744.00
2024-01-11T06:13:40.659Z,88743.00
2024-01-11T06:14:40.748Z,88742.00
2024-01-11T06:15:40.678Z,88743.00
2024-01-11T06:16:40.710Z,88747.00
2024-01-11T06:17:40.800Z,88744.00
2024-01-11T06:18:40.766Z,88746.00
2024-01-11T06:19:40.672Z,88746.00
2024-01-11T06:20:40.792Z,88746.00
2024-01-11T06:21:40.692Z,88747.00
2024-01-11T06:22:42.885Z,88750.00
2024-01-11T06:23:40.778Z,88749.00
2024-01-11T06:24:40.712Z,88749.00
2024-01-11T06:25:40.757Z,88750.00
2024-01-11T06:26:40.747Z,88748.00
2024-01-11T06:27:40.693Z,88748.00
2024-01-11T06:28:40.714Z,88748.00
2024-01-11T06:29:40.883Z,88748.00
2024-01-11T06:30:40.848Z,88747.00
2024-01-11T06:31:40.712Z,88748.00
2024-01-11T06:32:40.876Z,88751.00
2024-01-11T06:33:40.778Z,88748.00
2024-01-11T06:34:40.791Z,88753.00
2024-01-11T06:35:40.751Z,88755.00
2024-01-11T06:36:40.714Z,88756.00
2024-01-11T06:37:40.831Z,88757.00
2024-01-11T06:38:40.879Z,88759.00
2024-01-11T06:39:40.757Z,88759.00
2024-01-11T06:40:40.729Z,88760.00
2024-01-11T06:41:40.884Z,88762.00
2024-01-11T06:42:40.753Z,88764.00
2024-01-11T06:43:40.751Z,88763.00
2024-01-11T06:44:40.831Z,88763.00
2024-01-11T06:45:40.765Z,88766.00
2024-01-11T06:46:40.772Z,88767.00
2024-01-11T06:47:40.947Z,88769.00
2024-01-11T06:48:41.084Z,88771.00
2024-01-11T06:49:40.789Z,88771.00
2024-01-11T06:50:40.830Z,88773.00
2024-01-11T06:51:40.805Z,88774.00
2024-01-11T06:52:40.791Z,88776.00
2024-01-11T06:53:40.836Z,88777.00
2024-01-11T06:54:40.814Z,88776.00
2024-01-11T06:55:40.829Z,88776.00
2024-01-11T06:56:40.999Z,88777.00
2024-01-11T06:57:40.863Z,88776.00
2024-01-11T06:58:40.848Z,88774.00
2024-01-11T06:59:41.159Z,88775.00
2024-01-11T07:00:40.881Z,88774.00
2024-01-11T07:01:40.908Z,88772.00
2024-01-11T07:02:40.912Z,88771.00
2024-01-11T07:03:40.952Z,88772.00
2024-01-11T07:04:40.923Z,88772.00
2024-01-11T07:05:41.031Z,88769.00
2024-01-11T07:06:41.054Z,88770.00
2024-01-11T07:07:40.958Z,88766.00
2024-01-11T07:08:41.186Z,88767.00
2024-01-11T07:09:40.993Z,88763.00
2024-01-11T07:10:41.074Z,88763.00
2024-01-11T07:11:41.238Z,88761.00
2024-01-11T07:12:41.019Z,88761.00
2024-01-11T07:13:41.028Z,88759.00
2024-01-11T07:14:41.040Z,88758.00
2024-01-11T07:15:41.010Z,88758.00
2024-01-11T07:16:41.023Z,88757.00
2024-01-11T07:17:41.131Z,88756.00
2024-01-11T07:18:41.093Z,88755.00
2024-01-11T07:19:41.063Z,88757.00
2024-01-11T07:20:41.079Z,88757.00
2024-01-11T07:21:41.032Z,88757.00
2024-01-11T07:22:42.537Z,88757.00
2024-01-11T07:23:41.144Z,88757.00
2024-01-11T07:24:41.023Z,88757.00
2024-01-11T07:25:41.025Z,88757.00
2024-01-11T07:26:41.133Z,88757.00
2024-01-11T07:27:41.038Z,88759.00
2024-01-11T07:28:41.037Z,88760.00
2024-01-11T07:29:41.092Z,88760.00
2024-01-11T07:30:41.204Z,88760.00
2024-01-11T07:31:41.064Z,88762.00
2024-01-11T07:32:41.204Z,88763.00
2024-01-11T07:33:41.115Z,88763.00
2024-01-11T07:34:41.094Z,88764.00
2024-01-11T07:35:41.125Z,88764.00
2024-01-11T07:36:41.102Z,88766.00
2024-01-11T07:37:41.096Z,88764.00
2024-01-11T07:38:41.099Z,88766.00
2024-01-11T07:39:41.064Z,88767.00
2024-01-11T07:40:43.633Z,88768.00
2024-01-11T07:41:41.178Z,88773.00
2024-01-11T07:42:41.076Z,88771.00
2024-01-11T07:43:48.996Z,88775.00
2024-01-11T07:44:43.092Z,88775.00
2024-01-11T07:45:41.111Z,88778.00
2024-01-11T07:46:46.944Z,88777.00
2024-01-11T07:47:42.257Z,88776.00
2024-01-11T07:48:41.170Z,88776.00
2024-01-11T07:49:41.130Z,88780.00
2024-01-11T07:50:41.143Z,88779.00
2024-01-11T07:51:41.116Z,88778.00
2024-01-11T07:52:41.137Z,88778.00
2024-01-11T07:53:41.331Z,88777.00
2024-01-11T07:54:41.112Z,88777.00
2024-01-11T07:55:41.114Z,88776.00
2024-01-11T07:56:42.274Z,88778.00
2024-01-11T07:57:41.158Z,88776.00
2024-01-11T07:58:41.190Z,88776.00
2024-01-11T07:59:41.168Z,88778.00
2024-01-11T08:00:42.213Z,88777.00
2024-01-11T08:01:41.193Z,88778.00
2024-01-11T08:02:41.327Z,88777.00
2024-01-11T08:03:41.202Z,88776.00
2024-01-11T08:04:41.139Z,88773.00
2024-01-11T08:05:41.231Z,88773.00
2024-01-11T08:06:41.250Z,88773.00
2024-01-11T08:07:41.195Z,88774.00
2024-01-11T08:08:41.384Z,88772.00
2024-01-11T08:09:41.176Z,88774.00
2024-01-11T08:10:41.199Z,88776.00
2024-01-11T08:11:44.221Z,88777.00
2024-01-11T08:12:42.191Z,88779.00
2024-01-11T08:13:41.227Z,88782.00
2024-01-11T08:14:41.295Z,88784.00
2024-01-11T08:15:41.297Z,88784.00
2024-01-11T08:16:41.345Z,88784.00
2024-01-11T08:17:43.113Z,88787.00
2024-01-11T08:18:41.366Z,88789.00
2024-01-11T08:19:41.321Z,88790.00
2024-01-11T08:20:41.341Z,88788.00
2024-01-11T08:21:41.367Z,88787.00
2024-01-11T08:22:41.431Z,88786.00
2024-01-11T08:23:41.372Z,88786.00
2024-01-11T08:24:41.339Z,88786.00
2024-01-11T08:25:41.348Z,88785.00
2024-01-11T08:26:41.488Z,88786.00
2024-01-11T08:27:41.367Z,88788.00
2024-01-11T08:28:41.381Z,88788.00
2024-01-11T08:29:41.416Z,88793.00
2024-01-11T08:30:41.394Z,88791.00
2024-01-11T08:31:41.393Z,88789.00
2024-01-11T08:32:41.551Z,88790.00
2024-01-11T08:33:41.704Z,88789.00
2024-01-11T08:34:41.594Z,88791.00
2024-01-11T08:35:41.415Z,88792.00
2024-01-11T08:36:41.425Z,88790.00
2024-01-11T08:37:41.450Z,88788.00
2024-01-11T08:38:41.429Z,88788.00
2024-01-11T08:39:43.296Z,88788.00
2024-01-11T08:40:41.382Z,88787.00
2024-01-11T08:41:41.552Z,88787.00
2024-01-11T08:42:41.525Z,88788.00
2024-01-11T08:43:41.399Z,88787.00
2024-01-11T08:44:41.476Z,88788.00
2024-01-11T08:45:41.446Z,88792.00
2024-01-11T08:46:41.438Z,88792.00
2024-01-11T08:47:42.321Z,88793.00
2024-01-11T08:48:41.601Z,88793.00
2024-01-11T08:49:41.442Z,88795.00
2024-01-11T08:50:41.569Z,88791.00
2024-01-11T08:51:41.520Z,88792.00
2024-01-11T08:52:41.434Z,88791.00
2024-01-11T08:53:41.537Z,88788.00
2024-01-11T08:54:41.425Z,88786.00
2024-01-11T08:55:42.884Z,88783.00
2024-01-11T08:56:41.566Z,88783.00
2024-01-11T08:57:41.489Z,88783.00
2024-01-11T08:58:41.467Z,88784.00
2024-01-11T08:59:41.569Z,88787.00
2024-01-11T09:00:41.608Z,88787.00
2024-01-11T09:01:47.055Z,88788.00
2024-01-11T09:02:42.625Z,88788.00
2024-01-11T09:03:41.676Z,88787.00
2024-01-11T09:04:41.535Z,88787.00
2024-01-11T09:05:41.578Z,88787.00
2024-01-11T09:06:41.580Z,88787.00
2024-01-11T09:07:41.496Z,88787.00
2024-01-11T09:08:41.625Z,88785.00
2024-01-11T09:09:47.648Z,88782.00
2024-01-11T09:10:42.531Z,88784.00
2024-01-11T09:11:41.594Z,88782.00
2024-01-11T09:12:41.528Z,88780.00
2024-01-11T09:13:41.551Z,88782.00
2024-01-11T09:14:41.612Z,88782.00
2024-01-11T09:15:41.522Z,88783.00
2024-01-11T09:16:41.513Z,88780.00
2024-01-11T09:17:41.651Z,88783.00
2024-01-11T09:18:42.801Z,88779.00
2024-01-11T09:19:41.862Z,88779.00
2024-01-11T09:20:41.583Z,88778.00
2024-01-11T09:21:41.532Z,88778.00
2024-01-11T09:22:41.559Z,88778.00
2024-01-11T09:23:41.678Z,88778.00
2024-01-11T09:24:41.540Z,88780.00
2024-01-11T09:25:42.189Z,88781.00
2024-01-11T09:26:41.664Z,88783.00
2024-01-11T09:27:41.682Z,88786.00
2024-01-11T09:28:41.597Z,88787.00
2024-01-11T09:29:41.637Z,88789.00
2024-01-11T09:30:41.589Z,88789.00
2024-01-11T09:31:41.575Z,88790.00
2024-01-11T09:32:41.790Z,88792.00
2024-01-11T09:33:41.931Z,88796.00
2024-01-11T09:34:41.734Z,88797.00
2024-01-11T09:35:41.693Z,88797.00
2024-01-11T09:36:41.574Z,88799.00
2024-01-11T09:37:41.652Z,88803.00
2024-01-11T09:38:41.762Z,88801.00
2024-01-11T09:39:41.652Z,88801.00
2024-01-11T09:40:41.715Z,88803.00
2024-01-11T09:41:41.720Z,88805.00
2024-01-11T09:42:41.555Z,88804.00
2024-01-11T09:43:41.548Z,88806.00
2024-01-11T09:44:41.851Z,88804.00
2024-01-11T09:45:41.552Z,88802.00
2024-01-11T09:46:42.215Z,88800.00
2024-01-11T09:47:41.613Z,88800.00
2024-01-11T09:48:41.675Z,88799.00
2024-01-11T09:49:41.553Z,88796.00
2024-01-11T09:50:41.609Z,88797.00
2024-01-11T09:51:41.595Z,88794.00
2024-01-11T09:52:41.589Z,88794.00
2024-01-11T09:53:41.665Z,88792.00
2024-01-11T09:54:41.607Z,88791.00
2024-01-11T09:55:41.593Z,88789.00
2024-01-11T09:56:41.623Z,88791.00
2024-01-11T09:57:41.627Z,88788.00
2024-01-11T09:58:41.596Z,88788.00
2024-01-11T09:59:41.750Z,88791.00
2024-01-11T10:00:41.704Z,88791.00
2024-01-11T10:01:41.597Z,88792.00
2024-01-11T10:02:41.718Z,88793.00
2024-01-11T10:03:41.662Z,88792.00
2024-01-11T10:04:41.616Z,88793.00
2024-01-11T10:05:41.653Z,88793.00
2024-01-11T10:06:41.626Z,88792.00
2024-01-11T10:07:41.614Z,88791.00
2024-01-11T10:08:41.648Z,88788.00
2024-01-11T10:09:41.648Z,88788.00
2024-01-11T10:10:41.806Z,88786.00
2024-01-11T10:11:41.820Z,88786.00
2024-01-11T10:12:41.632Z,88784.00
2024-01-11T10:13:42.630Z,88785.00
2024-01-11T10:14:41.700Z,88784.00
2024-01-11T10:15:41.674Z,88786.00
2024-01-11T10:16:41.683Z,88788.00
2024-01-11T10:17:41.995Z,88788.00
2024-01-11T10:18:41.817Z,88791.00
2024-01-11T10:19:41.819Z,88795.00
2024-01-11T10:20:41.775Z,88796.00
2024-01-11T10:21:41.701Z,88797.00
2024-01-11T10:22:41.706Z,88798.00
2024-01-11T10:23:41.845Z,88799.00
2024-01-11T10:24:41.732Z,88799.00
2024-01-11T10:25:41.705Z,88799.00
2024-01-11T10:26:41.797Z,88800.00
2024-01-11T10:27:41.698Z,88799.00
2024-01-11T10:28:41.726Z,88799.00
2024-01-11T10:29:41.774Z,88795.00
2024-01-11T10:30:41.759Z,88795.00
2024-01-11T10:31:41.797Z,88794.00
2024-01-11T10:32:41.863Z,88791.00
2024-01-11T10:33:41.812Z,88790.00
2024-01-11T10:34:41.737Z,88785.00
2024-01-11T10:35:42.717Z,88785.00
2024-01-11T10:36:41.721Z,88782.00
2024-01-11T10:37:41.730Z,88783.00
2024-01-11T10:38:41.821Z,88784.00
2024-01-11T10:39:41.739Z,88786.00
2024-01-11T10:40:41.742Z,88788.00
2024-01-11T10:41:41.881Z,88786.00
2024-01-11T10:42:41.827Z,88787.00
2024-01-11T10:43:41.874Z,88787.00
2024-01-11T10:44:42.059Z,88786.00
2024-01-11T10:45:42.067Z,88782.00
2024-01-11T10:46:42.161Z,88780.00
2024-01-11T10:47:42.265Z,88776.00
2024-01-11T10:48:42.396Z,88771.00
2024-01-11T10:49:42.526Z,88769.00
2024-01-11T10:50:42.419Z,88768.00
2024-01-11T10:51:42.338Z,88764.00
2024-01-11T10:52:42.330Z,88760.00
2024-01-11T10:53:42.378Z,88762.00
2024-01-11T10:54:42.398Z,88761.00
2024-01-11T10:55:42.349Z,88761.00
2024-01-11T10:56:42.693Z,88764.00
2024-01-11T10:57:42.758Z,88765.00
2024-01-11T10:58:42.345Z,88765.00
2024-01-11T10:59:44.365Z,88763.00
2024-01-11T11:00:42.653Z,88765.00
2024-01-11T11:01:42.385Z,88762.00
2024-01-11T11:02:42.489Z,88760.00
2024-01-11T11:03:42.418Z,88758.00
2024-01-11T11:04:42.407Z,88755.00
2024-01-11T11:05:42.599Z,88757.00
2024-01-11T11:06:42.513Z,88756.00
2024-01-11T11:07:42.448Z,88760.00
2024-01-11T11:08:42.548Z,88756.00
2024-01-11T11:09:42.549Z,88757.00
2024-01-11T11:10:42.546Z,88757.00
2024-01-11T11:11:42.651Z,88755.00
2024-01-11T11:12:42.561Z,88755.00
2024-01-11T11:13:42.544Z,88754.00
2024-01-11T11:14:42.791Z,88752.00
2024-01-11T11:15:42.558Z,88750.00
2024-01-11T11:16:42.572Z,88748.00
2024-01-11T11:17:42.683Z,88748.00
2024-01-11T11:18:43.391Z,88749.00
2024-01-11T11:19:42.679Z,88745.00
2024-01-11T11:20:42.865Z,88744.00
2024-01-11T11:21:43.071Z,88745.00
2024-01-11T11:22:42.731Z,88745.00
2024-01-11T11:23:43.046Z,88744.00
2024-01-11T11:24:42.744Z,88746.00
2024-01-11T11:25:42.701Z,88746.00
2024-01-11T11:26:42.826Z,88749.00
2024-01-11T11:27:42.708Z,88746.00
2024-01-11T11:28:42.707Z,88749.00
2024-01-11T11:29:42.777Z,88749.00
2024-01-11T11:30:42.920Z,88746.00
2024-01-11T11:31:42.774Z,88745.00
2024-01-11T11:32:42.858Z,88743.00
2024-01-11T11:33:42.877Z,88743.00
2024-01-11T11:34:42.815Z,88740.00
2024-01-11T11:35:42.820Z,88737.00
2024-01-11T11:36:42.928Z,88735.00
2024-01-11T11:37:42.754Z,88735.00
2024-01-11T11:38:42.972Z,88735.00
2024-01-11T11:39:42.761Z,88735.00
2024-01-11T11:40:42.828Z,88731.00
2024-01-11T11:41:42.760Z,88733.00
2024-01-11T11:42:42.810Z,88731.00
2024-01-11T11:43:42.813Z,88728.00
2024-01-11T11:44:42.825Z,88726.00